You are not logged in, Click here to log in
倫敦城市機場LCY / EGLC 倫敦碼頭區的機場,由於該機場的跑道距離,最大能起降的機型為A318
ICAO: EGLC Country: 倫敦碼頭區的機場,由於該機場的跑道距離,最大能起降的機型為A318
Latitude: 51.5053 Longitude: 0.055278
Total Arrivals: 4 Total Departures: 0
Latest Arrival: CX252X (EGLL-EGLC)Stone. Chang Latest Departure: (-).
Scenery:
METAR : EGLC 092050Z AUTO 29006KT 9999 NCD 07/01 Q1024

倫敦城市機場LCY

You are accessing this site from IP address 35.170.81.210. Virtual Airline. CMS by phpVMS.Website designed by Zumeweb and edited by Theo Bearman.
There is 0 User(s) Online: | and 10 Guest(s) Online.
All information on this site is for fight simulation purposes only. This site is for flight logging for pilots of Virtual Airline&模擬飛行論壇 FlySim only.